Time;durP1;ratioP1;P1;durP2;ratioP2;P2;SDS_P1;SDS_P2;PMS_P1;PMS_P2;Temp;Humidity;BMP_temperature;BMP_pressure;BME280_temperature;BME280_humidity;BME280_pressure;Samples;Min_cycle;Max_cycle;Signal;HPM_P1;HPM_P2
2022/03/22 00:01:21;;;;;;;5.90;3.23;;;5.90;25.90;;;;;;5031874;28;20171;-36
2022/03/22 00:03:47;;;;;;;5.37;3.00;;;5.90;25.70;;;;;;5031840;28;20203;-35
2022/03/22 00:06:14;;;;;;;4.55;2.38;;;5.90;25.80;;;;;;5031783;28;20673;-35
2022/03/22 00:08:41;;;;;;;5.05;2.88;;;5.80;25.80;;;;;;5031699;28;20175;-35
2022/03/22 00:11:07;;;;;;;4.30;2.40;;;5.80;25.80;;;;;;5032038;28;20201;-35
2022/03/22 00:13:33;;;;;;;10.50;3.47;;;5.80;25.60;;;;;;5031586;28;20686;-35
2022/03/22 00:15:59;;;;;;;3.53;2.30;;;5.80;25.40;;;;;;5032008;28;20806;-36
2022/03/22 00:18:25;;;;;;;5.20;4.03;;;5.80;25.40;;;;;;5031896;28;20323;-35
2022/03/22 00:20:50;;;;;;;3.80;2.83;;;5.80;25.50;;;;;;5031960;28;20175;-35
2022/03/22 00:23:19;;;;;;;4.80;2.40;;;5.80;25.20;;;;;;5031746;28;20564;-35
2022/03/22 00:25:45;;;;;;;4.70;3.08;;;5.70;25.40;;;;;;5031791;28;20202;-35
2022/03/22 00:28:12;;;;;;;3.75;3.17;;;5.70;25.80;;;;;;5031968;28;20178;-35
2022/03/22 00:30:38;;;;;;;5.07;3.40;;;5.60;25.80;;;;;;5031857;28;20186;-35
2022/03/22 00:33:06;;;;;;;11.47;2.47;;;5.60;25.80;;;;;;5031811;28;20630;-35
2022/03/22 00:35:37;;;;;;;3.63;2.22;;;5.50;25.60;;;;;;5031677;28;20983;-35
2022/03/22 00:38:05;;;;;;;3.88;2.17;;;5.50;25.90;;;;;;5031805;28;20638;-34
2022/03/22 00:40:31;;;;;;;6.70;3.30;;;5.40;26.10;;;;;;5031662;28;20181;-35
2022/03/22 00:42:57;;;;;;;7.93;4.20;;;5.30;27.10;;;;;;5031782;28;20190;-35
2022/03/22 00:45:28;;;;;;;4.25;2.70;;;5.30;26.30;;;;;;5031802;28;20296;-35
2022/03/22 00:47:55;;;;;;;2.80;2.22;;;5.20;26.00;;;;;;5032813;28;20665;-35
2022/03/22 00:50:27;;;;;;;4.60;1.92;;;5.20;26.40;;;;;;5035143;28;20200;-35
2022/03/22 00:52:54;;;;;;;3.40;1.75;;;5.20;26.50;;;;;;5035093;28;20178;-35
2022/03/22 00:55:24;;;;;;;3.20;2.00;;;5.20;26.60;;;;;;5034969;28;20244;-35
2022/03/22 00:57:51;;;;;;;5.05;3.25;;;5.20;27.40;;;;;;5035135;28;20200;-35
2022/03/22 01:00:18;;;;;;;3.28;1.92;;;5.10;26.90;;;;;;5034976;28;20547;-35
2022/03/22 01:02:49;;;;;;;4.47;2.70;;;5.10;27.40;;;;;;5034872;28;20174;-35
2022/03/22 01:05:19;;;;;;;4.55;2.83;;;5.10;26.50;;;;;;5034981;28;20210;-35
2022/03/22 01:07:50;;;;;;;3.50;2.10;;;5.10;26.90;;;;;;5034981;28;20182;-35
2022/03/22 01:10:18;;;;;;;3.17;2.35;;;5.00;27.10;;;;;;5034534;28;20165;-36
2022/03/22 01:12:45;;;;;;;3.47;2.15;;;5.10;26.40;;;;;;5034625;28;20638;-35
2022/03/22 01:15:15;;;;;;;5.85;2.83;;;5.10;26.50;;;;;;5034571;28;20194;-35
2022/03/22 01:17:42;;;;;;;6.28;3.05;;;5.10;27.80;;;;;;5081783;23;20220;-31
2022/03/22 01:20:11;;;;;;;5.22;3.47;;;5.10;26.70;;;;;;5053955;28;20173;-31
2022/03/22 01:22:39;;;;;;;5.40;2.15;;;5.00;26.40;;;;;;5054432;28;20250;-31
2022/03/22 01:25:08;;;;;;;4.45;3.10;;;5.00;26.70;;;;;;5054358;28;20208;-31
2022/03/22 01:27:34;;;;;;;4.60;2.88;;;5.00;26.80;;;;;;5054004;28;20719;-32
2022/03/22 01:30:00;;;;;;;6.57;2.35;;;6.00;27.50;;;;;;5049266;28;20580;-32
2022/03/22 01:32:26;;;;;;;5.30;3.00;;;5.40;27.20;;;;;;5049881;28;20189;-32
2022/03/22 01:34:51;;;;;;;4.60;2.10;;;4.90;27.00;;;;;;5054630;28;20170;-30
2022/03/22 01:37:17;;;;;;;6.67;3.30;;;4.90;26.70;;;;;;5054107;28;20194;-31
2022/03/22 01:39:43;;;;;;;6.07;2.93;;;4.90;27.10;;;;;;5054292;28;20173;-30
2022/03/22 01:42:08;;;;;;;5.13;2.20;;;4.90;26.80;;;;;;5054191;28;20751;-31
2022/03/22 01:44:34;;;;;;;5.80;3.27;;;4.80;26.80;;;;;;5054290;28;20227;-30
2022/03/22 01:47:02;;;;;;;3.63;2.63;;;4.80;26.90;;;;;;5053976;28;20243;-31
2022/03/22 01:49:27;;;;;;;4.25;1.90;;;4.80;26.40;;;;;;5053833;28;20162;-30
2022/03/22 01:51:54;;;;;;;7.57;4.07;;;4.70;26.80;;;;;;5054031;28;20173;-30
2022/03/22 01:54:20;;;;;;;4.18;3.22;;;4.70;27.10;;;;;;5053987;28;20256;-30
2022/03/22 01:56:46;;;;;;;8.83;3.53;;;4.70;27.00;;;;;;5053923;28;20280;-30
2022/03/22 01:59:12;;;;;;;3.93;2.40;;;4.60;26.70;;;;;;5052954;28;20514;-31
2022/03/22 02:07:06;;;;;;;9.32;5.43;;;4.40;27.00;;;;;;5054170;28;20207;-30
2022/03/22 02:09:33;;;;;;;6.37;3.80;;;4.40;27.90;;;;;;5053675;28;20192;-31
2022/03/22 02:11:59;;;;;;;2.30;1.85;;;4.30;27.40;;;;;;5053896;28;20404;-30
2022/03/22 02:14:26;;;;;;;4.73;2.43;;;4.30;27.40;;;;;;5053552;28;20205;-31
2022/03/22 02:16:52;;;;;;;6.35;2.92;;;4.30;27.40;;;;;;5053298;28;20455;-31
2022/03/22 02:19:18;;;;;;;4.43;2.85;;;4.30;27.60;;;;;;5053259;28;20169;-30
2022/03/22 02:21:44;;;;;;;8.37;2.47;;;4.30;27.90;;;;;;5052125;28;20177;-30
2022/03/22 02:24:10;;;;;;;4.43;2.53;;;4.20;27.50;;;;;;5053693;28;20481;-31
2022/03/22 02:26:39;;;;;;;3.65;1.80;;;4.20;27.10;;;;;;5053477;28;20225;-31
2022/03/22 02:29:05;;;;;;;7.28;3.67;;;4.20;27.00;;;;;;5053316;28;20169;-31
2022/03/22 02:31:32;;;;;;;5.28;3.15;;;4.30;27.00;;;;;;5053390;28;20173;-31
2022/03/22 02:33:58;;;;;;;3.42;2.97;;;4.30;26.80;;;;;;5053623;28;20177;-30
2022/03/22 02:36:24;;;;;;;2.90;2.53;;;4.40;26.60;;;;;;5053208;28;20166;-30
2022/03/22 02:38:51;;;;;;;3.17;1.90;;;4.50;26.10;;;;;;5053033;28;20177;-30
2022/03/22 02:41:24;;;;;;;3.97;2.30;;;4.60;25.50;;;;;;5053213;28;20415;-30
2022/03/22 02:43:51;;;;;;;4.00;2.97;;;4.90;25.00;;;;;;5053236;28;20192;-31
2022/03/22 02:46:17;;;;;;;5.85;2.42;;;5.20;24.30;;;;;;5052837;28;20251;-31
2022/03/22 02:48:43;;;;;;;4.28;2.75;;;5.50;23.90;;;;;;5052937;28;20177;-30
2022/03/22 02:51:09;;;;;;;4.20;3.13;;;5.70;23.60;;;;;;5053042;28;20161;-31
2022/03/22 02:53:35;;;;;;;4.85;2.55;;;6.00;22.80;;;;;;5051580;28;20177;-31
2022/03/22 02:56:01;;;;;;;4.70;2.13;;;6.20;22.00;;;;;;5052677;28;20169;-31
2022/03/22 02:58:27;;;;;;;8.50;3.60;;;6.40;22.10;;;;;;5052691;28;20254;-31
2022/03/22 03:00:53;;;;;;;6.13;2.33;;;6.50;21.70;;;;;;5052693;28;20228;-31
2022/03/22 03:03:22;;;;;;;5.83;3.50;;;6.70;21.20;;;;;;5052910;28;20204;-31
2022/03/22 03:05:51;;;;;;;3.65;2.50;;;6.80;21.00;;;;;;5052451;28;20452;-31
2022/03/22 03:08:18;;;;;;;9.00;2.90;;;6.90;20.70;;;;;;5052812;28;20206;-31
2022/03/22 03:10:45;;;;;;;4.88;3.25;;;7.00;20.60;;;;;;5051653;28;20299;-31
2022/03/22 03:13:11;;;;;;;3.78;3.10;;;7.10;20.30;;;;;;5052197;28;20230;-32
2022/03/22 03:15:37;;;;;;;8.68;3.75;;;7.20;20.30;;;;;;5052471;28;20177;-31
2022/03/22 03:18:03;;;;;;;4.10;3.05;;;7.30;19.90;;;;;;5052277;28;20771;-32
2022/03/22 03:20:29;;;;;;;6.72;3.30;;;7.30;19.90;;;;;;5052204;28;20173;-31
2022/03/22 03:22:56;;;;;;;4.68;3.85;;;7.40;19.90;;;;;;5052391;28;20185;-30
2022/03/22 03:25:22;;;;;;;3.83;3.38;;;7.40;19.70;;;;;;5052345;28;20734;-30
2022/03/22 03:27:49;;;;;;;9.20;4.32;;;7.50;19.80;;;;;;5052461;28;20220;-31
2022/03/22 03:30:15;;;;;;;7.35;4.45;;;7.40;19.60;;;;;;5052387;28;20216;-31
2022/03/22 03:32:41;;;;;;;5.67;4.10;;;7.50;19.30;;;;;;5053582;28;20173;-31
2022/03/22 03:35:07;;;;;;;6.00;3.47;;;7.60;19.40;;;;;;5054791;28;20411;-31
2022/03/22 03:37:35;;;;;;;5.97;2.97;;;7.60;19.40;;;;;;5053652;28;20213;-30
2022/03/22 03:40:05;;;;;;;5.05;3.60;;;7.60;19.40;;;;;;5052690;28;20403;-31
2022/03/22 03:42:30;;;;;;;9.73;2.95;;;7.60;19.20;;;;;;5051993;28;20647;-31
2022/03/22 03:47:40;;;;;;;6.35;3.83;;;7.60;19.40;;;;;;5051949;28;20243;-30
2022/03/22 03:50:07;;;;;;;14.63;5.03;;;7.60;19.20;;;;;;5052073;28;20176;-30
2022/03/22 03:52:36;;;;;;;5.78;2.92;;;7.60;19.30;;;;;;5052155;28;20195;-30
2022/03/22 03:55:05;;;;;;;5.93;4.65;;;7.60;19.30;;;;;;5052250;28;20177;-30
2022/03/22 03:57:31;;;;;;;5.03;2.90;;;7.60;19.30;;;;;;5052166;28;20189;-31
2022/03/22 03:59:56;;;;;;;5.00;3.70;;;7.50;19.40;;;;;;5051913;28;20181;-31
2022/03/22 04:02:23;;;;;;;8.03;3.83;;;7.60;19.40;;;;;;5051931;28;20497;-30
2022/03/22 04:04:52;;;;;;;8.52;4.20;;;7.50;19.50;;;;;;5052006;28;20459;-30
2022/03/22 04:07:23;;;;;;;6.32;3.25;;;7.50;19.50;;;;;;5051732;28;20194;-30
2022/03/22 04:09:49;;;;;;;6.28;3.78;;;7.40;19.50;;;;;;5051986;28;20182;-31
2022/03/22 04:12:15;;;;;;;5.85;3.13;;;7.40;19.60;;;;;;5051775;28;20252;-31
2022/03/22 04:14:41;;;;;;;6.10;4.47;;;7.30;19.60;;;;;;5052581;28;20677;-31
2022/03/22 04:17:09;;;;;;;8.40;3.97;;;7.30;19.70;;;;;;5051571;28;20204;-31
2022/03/22 04:19:36;;;;;;;8.55;3.10;;;7.30;19.70;;;;;;5051561;28;20419;-31
2022/03/22 04:22:04;;;;;;;6.80;5.07;;;7.20;19.70;;;;;;5051697;28;20276;-30
2022/03/22 04:24:30;;;;;;;9.73;4.28;;;7.20;19.70;;;;;;5055788;28;20184;-30
2022/03/22 04:32:41;;;;;;;6.47;4.80;;;7.10;19.70;;;;;;5055516;28;20211;-30
2022/03/22 04:32:44;;;;;;;6.53;4.25;;;7.10;20.00;;;;;;5055746;28;20188;-31
2022/03/22 04:35:17;;;;;;;7.45;4.85;;;7.00;19.90;;;;;;5055538;28;20652;-31
2022/03/22 04:37:43;;;;;;;10.25;3.83;;;7.00;19.90;;;;;;5055603;28;20197;-30
2022/03/22 04:40:10;;;;;;;4.22;3.13;;;7.00;20.00;;;;;;5055160;28;20176;-30
2022/03/22 04:42:36;;;;;;;5.28;3.28;;;7.00;19.90;;;;;;5055158;28;20176;-30
2022/03/22 04:45:03;;;;;;;9.13;3.92;;;6.90;20.00;;;;;;5055108;28;20219;-31
2022/03/22 04:47:29;;;;;;;7.18;4.07;;;6.90;20.00;;;;;;5055308;28;20217;-30
2022/03/22 04:49:56;;;;;;;14.98;4.07;;;6.90;20.00;;;;;;5055047;28;20174;-30
2022/03/22 04:57:51;;;;;;;6.32;3.25;;;6.90;20.00;;;;;;5055013;28;20251;-31
2022/03/22 05:00:17;;;;;;;5.20;3.63;;;6.80;20.00;;;;;;5055500;28;20224;-31
2022/03/22 05:02:42;;;;;;;7.03;5.43;;;6.80;20.00;;;;;;5054955;28;20181;-32
2022/03/22 05:05:08;;;;;;;9.27;4.63;;;6.70;20.00;;;;;;5054746;28;20440;-31
2022/03/22 05:07:34;;;;;;;8.55;3.80;;;6.70;20.00;;;;;;5054898;28;20189;-32
2022/03/22 05:10:00;;;;;;;5.50;3.60;;;6.70;20.00;;;;;;5054658;28;20188;-30
2022/03/22 05:12:25;;;;;;;9.00;4.40;;;6.70;20.10;;;;;;5054892;28;20173;-30
2022/03/22 05:14:51;;;;;;;6.13;4.07;;;6.70;20.10;;;;;;5054815;28;20169;-30
2022/03/22 05:17:21;;;;;;;6.60;3.80;;;6.60;20.00;;;;;;5054484;28;20239;-31
2022/03/22 05:19:49;;;;;;;7.35;3.60;;;6.50;20.10;;;;;;5054834;28;20236;-30
2022/03/22 05:22:16;;;;;;;5.07;3.25;;;6.50;20.10;;;;;;5054476;28;20244;-31
2022/03/22 05:24:41;;;;;;;11.23;3.92;;;6.50;20.40;;;;;;5054747;28;20180;-30
2022/03/22 05:27:07;;;;;;;11.17;5.87;;;6.40;20.40;;;;;;5054490;28;20688;-31
2022/03/22 05:29:33;;;;;;;8.40;3.90;;;6.40;20.40;;;;;;5054416;28;20449;-31
2022/03/22 05:32:00;;;;;;;8.70;5.10;;;6.40;20.60;;;;;;5054584;28;20779;-31
2022/03/22 05:34:25;;;;;;;4.32;3.38;;;6.40;21.20;;;;;;5053733;28;20177;-31
2022/03/22 05:36:52;;;;;;;4.83;3.33;;;6.30;21.00;;;;;;5060081;28;20207;-31
2022/03/22 05:39:18;;;;;;;6.53;3.45;;;6.30;21.20;;;;;;5061829;28;20549;-31
2022/03/22 05:41:44;;;;;;;11.18;5.95;;;6.30;21.30;;;;;;5063042;28;20173;-31
2022/03/22 05:44:12;;;;;;;8.50;4.97;;;6.30;21.60;;;;;;5063228;28;20196;-30
2022/03/22 05:46:39;;;;;;;10.23;4.30;;;6.20;21.50;;;;;;5059304;28;20209;-31
2022/03/22 05:49:05;;;;;;;6.53;3.70;;;6.30;21.70;;;;;;5054057;28;20181;-31
2022/03/22 05:51:30;;;;;;;23.63;4.43;;;6.30;21.80;;;;;;5054114;28;20177;-30
2022/03/22 05:53:56;;;;;;;9.60;5.17;;;6.30;21.70;;;;;;5054120;28;20169;-30
2022/03/22 05:56:22;;;;;;;7.50;4.63;;;6.30;21.60;;;;;;5053974;28;20178;-31
2022/03/22 05:58:47;;;;;;;11.90;4.83;;;6.40;21.70;;;;;;5054105;28;20177;-31
2022/03/22 06:01:13;;;;;;;11.00;4.13;;;6.50;21.60;;;;;;5054130;28;20539;-31
2022/03/22 06:03:39;;;;;;;8.67;4.23;;;6.50;21.70;;;;;;5054266;28;20633;-30
2022/03/22 06:06:05;;;;;;;6.60;3.43;;;6.60;21.80;;;;;;5053699;28;20252;-30
2022/03/22 06:08:31;;;;;;;5.93;3.75;;;6.70;21.80;;;;;;5053876;28;20315;-31
2022/03/22 06:10:57;;;;;;;10.33;5.30;;;6.80;21.70;;;;;;5054238;28;20216;-30
2022/03/22 06:13:23;;;;;;;13.07;5.93;;;7.00;21.70;;;;;;5054015;28;20487;-30
2022/03/22 06:15:49;;;;;;;13.73;5.40;;;7.10;21.70;;;;;;5054046;28;20177;-30
2022/03/22 06:18:15;;;;;;;10.80;5.20;;;7.30;21.60;;;;;;5052174;28;20218;-30
2022/03/22 06:20:41;;;;;;;9.23;4.80;;;7.40;21.50;;;;;;5053417;28;20182;-30
2022/03/22 06:23:10;;;;;;;13.55;4.50;;;7.50;21.90;;;;;;5053343;28;20678;-30
2022/03/22 06:25:37;;;;;;;11.50;4.38;;;7.70;21.70;;;;;;5053234;28;20696;-31
2022/03/22 06:28:04;;;;;;;10.43;6.43;;;7.80;21.70;;;;;;5053282;28;20197;-31
2022/03/22 06:30:31;;;;;;;6.40;5.00;;;8.00;21.50;;;;;;5053172;28;20183;-31
2022/03/22 06:32:59;;;;;;;7.53;4.00;;;8.10;21.40;;;;;;5053080;28;20180;-31
2022/03/22 06:35:32;;;;;;;9.10;4.30;;;8.20;21.30;;;;;;5053290;28;20185;-30
2022/03/22 06:37:59;;;;;;;6.63;4.55;;;8.40;21.40;;;;;;5053848;28;20555;-30
2022/03/22 06:40:28;;;;;;;9.20;5.80;;;8.50;21.20;;;;;;5053566;28;20211;-32
2022/03/22 06:42:55;;;;;;;13.43;5.60;;;8.70;21.10;;;;;;5053156;28;20180;-32
2022/03/22 06:45:21;;;;;;;8.82;5.60;;;8.80;20.90;;;;;;5052521;28;20206;-32
2022/03/22 06:47:48;;;;;;;12.52;6.50;;;9.00;20.80;;;;;;5052655;28;20192;-32
2022/03/22 06:50:16;;;;;;;11.43;6.43;;;9.10;20.80;;;;;;5052987;28;20270;-32
2022/03/22 06:52:42;;;;;;;12.23;6.65;;;9.30;20.50;;;;;;5053013;28;20220;-31
2022/03/22 06:55:09;;;;;;;10.15;6.35;;;9.50;20.40;;;;;;5052848;28;20177;-32
2022/03/22 06:57:36;;;;;;;9.35;4.47;;;9.60;20.30;;;;;;5052661;28;20677;-31
2022/03/22 07:00:05;;;;;;;7.70;4.65;;;9.80;20.10;;;;;;5052527;28;20180;-30
2022/03/22 07:02:32;;;;;;;8.68;4.25;;;10.00;20.10;;;;;;5052677;28;20188;-31
2022/03/22 07:04:58;;;;;;;8.80;4.55;;;10.10;19.90;;;;;;5052524;28;20664;-31
2022/03/22 07:07:24;;;;;;;7.40;5.00;;;10.30;19.90;;;;;;5052740;28;20200;-32
2022/03/22 07:09:50;;;;;;;8.55;5.47;;;10.40;19.80;;;;;;5052788;28;20407;-30
2022/03/22 07:12:15;;;;;;;7.93;4.77;;;10.60;19.30;;;;;;5052488;28;20173;-31
2022/03/22 07:14:41;;;;;;;7.73;6.30;;;10.80;18.30;;;;;;5054561;28;20408;-31
2022/03/22 07:17:10;;;;;;;8.30;5.33;;;10.80;18.00;;;;;;5058436;28;20744;-31
2022/03/22 07:19:37;;;;;;;8.68;4.50;;;10.90;17.50;;;;;;5057118;28;20165;-30
2022/03/22 07:22:04;;;;;;;5.75;3.63;;;11.00;18.00;;;;;;5054871;28;20181;-31
2022/03/22 07:24:30;;;;;;;7.57;4.88;;;11.10;16.90;;;;;;5055346;28;20173;-31
2022/03/22 07:26:56;;;;;;;8.10;3.77;;;11.20;17.10;;;;;;5052411;28;20573;-30
2022/03/22 07:29:22;;;;;;;8.00;4.33;;;11.30;15.60;;;;;;5052061;28;20408;-30
2022/03/22 07:31:47;;;;;;;7.40;4.53;;;11.50;15.30;;;;;;5052432;28;20408;-30
2022/03/22 07:34:15;;;;;;;12.00;5.03;;;11.60;16.70;;;;;;5052099;28;20869;-31
2022/03/22 07:36:42;;;;;;;6.95;3.75;;;11.80;16.00;;;;;;5052112;28;20205;-31
2022/03/22 07:39:10;;;;;;;6.65;3.95;;;12.00;14.80;;;;;;5052094;28;20184;-31
2022/03/22 07:41:38;;;;;;;5.72;4.00;;;12.20;16.00;;;;;;5052039;28;20187;-31
2022/03/22 07:44:05;;;;;;;6.20;4.32;;;12.40;14.50;;;;;;5051951;28;20177;-32
2022/03/22 07:46:33;;;;;;;8.48;5.43;;;12.50;15.10;;;;;;5051861;28;20193;-32
2022/03/22 07:52:58;;;;;;;12.57;4.70;;;12.70;14.90;;;;;;5051865;28;20177;-32
2022/03/22 07:54:31;;;;;;;7.63;3.70;;;13.10;15.30;;;;;;5051985;28;20600;-31
2022/03/22 07:56:57;;;;;;;7.97;5.60;;;13.30;14.00;;;;;;5051707;28;20193;-32
2022/03/22 07:59:24;;;;;;;9.83;4.57;;;13.30;14.30;;;;;;5055543;28;20303;-32
2022/03/22 08:01:51;;;;;;;7.50;5.10;;;13.40;14.00;;;;;;5056162;28;20422;-31
2022/03/22 08:04:17;;;;;;;13.25;4.57;;;13.60;13.90;;;;;;5055833;28;20177;-32
2022/03/22 08:06:43;;;;;;;6.35;3.60;;;13.70;13.80;;;;;;5055611;28;20579;-32
2022/03/22 08:09:09;;;;;;;7.53;5.05;;;13.80;13.90;;;;;;5055776;28;20169;-31
2022/03/22 08:11:35;;;;;;;10.50;4.93;;;14.00;13.30;;;;;;5055733;28;20169;-31
2022/03/22 08:14:02;;;;;;;6.40;4.32;;;14.10;14.30;;;;;;5054649;28;20192;-32
2022/03/22 08:16:28;;;;;;;7.80;5.85;;;14.30;12.80;;;;;;5055777;28;20224;-32
2022/03/22 08:18:54;;;;;;;8.20;4.38;;;14.40;12.90;;;;;;5055693;28;20172;-32
2022/03/22 08:21:20;;;;;;;10.57;5.63;;;14.50;13.40;;;;;;5055453;28;20660;-32
2022/03/22 08:23:46;;;;;;;6.75;5.03;;;14.60;13.50;;;;;;5055049;28;20177;-33
2022/03/22 08:26:13;;;;;;;8.03;4.93;;;14.90;13.70;;;;;;5054452;28;20197;-33
2022/03/22 08:28:39;;;;;;;7.20;5.00;;;15.00;13.10;;;;;;5055656;28;20281;-33
2022/03/22 08:31:05;;;;;;;8.93;5.25;;;15.10;12.90;;;;;;5055413;28;20611;-32
2022/03/22 08:33:31;;;;;;;8.70;5.00;;;15.20;12.50;;;;;;5045924;28;20264;-32
2022/03/22 08:35:57;;;;;;;8.20;5.70;;;15.30;12.30;;;;;;5054972;28;20173;-33
2022/03/22 08:38:24;;;;;;;9.20;5.57;;;15.40;12.50;;;;;;5055419;28;20431;-32
2022/03/22 08:40:51;;;;;;;5.18;4.50;;;15.50;12.90;;;;;;5055205;28;20184;-32
2022/03/22 08:43:19;;;;;;;6.68;3.83;;;15.60;12.50;;;;;;5055265;28;20192;-31
2022/03/22 08:45:45;;;;;;;6.15;5.53;;;15.70;12.30;;;;;;5054976;28;20579;-33
2022/03/22 08:48:12;;;;;;;9.38;5.53;;;15.80;12.20;;;;;;5054945;28;20189;-32
2022/03/22 08:50:43;;;;;;;6.55;4.70;;;15.90;11.90;;;;;;5055143;28;20266;-32
2022/03/22 08:53:09;;;;;;;7.13;4.78;;;16.10;12.60;;;;;;5055301;28;20196;-33
2022/03/22 08:55:36;;;;;;;8.48;5.57;;;16.20;12.00;;;;;;5055167;28;20247;-33
2022/03/22 08:58:05;;;;;;;7.25;4.03;;;16.30;12.00;;;;;;5054995;28;20216;-32
2022/03/22 09:00:32;;;;;;;7.95;3.95;;;16.50;12.10;;;;;;5054712;28;20184;-33
2022/03/22 09:02:58;;;;;;;6.93;5.72;;;16.60;11.50;;;;;;5055715;28;20196;-33
2022/03/22 09:08:08;;;;;;;11.23;5.18;;;16.90;12.70;;;;;;5053970;28;20894;-33
2022/03/22 09:10:35;;;;;;;5.93;4.80;;;17.20;11.00;;;;;;5054415;28;20177;-32
2022/03/22 09:13:02;;;;;;;6.68;4.32;;;17.20;10.70;;;;;;5054583;28;20813;-33
2022/03/22 09:15:28;;;;;;;6.30;4.45;;;17.40;10.70;;;;;;5054541;28;20197;-33
2022/03/22 09:17:56;;;;;;;9.80;5.80;;;17.60;12.00;;;;;;5054369;28;20204;-33
2022/03/22 09:20:25;;;;;;;5.57;4.60;;;17.80;10.90;;;;;;5054415;28;20201;-33
2022/03/22 09:22:51;;;;;;;9.38;4.63;;;17.90;10.90;;;;;;5054759;28;20184;-33
2022/03/22 09:25:18;;;;;;;7.50;5.03;;;18.00;10.30;;;;;;5054231;28;20196;-32
2022/03/22 09:27:44;;;;;;;13.13;5.57;;;18.10;9.50;;;;;;5054321;28;20200;-33
2022/03/22 09:30:12;;;;;;;9.77;4.90;;;18.10;9.90;;;;;;5054088;28;20173;-33
2022/03/22 09:32:39;;;;;;;6.75;5.72;;;18.20;10.10;;;;;;5054441;28;20201;-32
2022/03/22 09:35:07;;;;;;;6.32;4.53;;;18.40;10.00;;;;;;5054214;28;20176;-33
2022/03/22 09:37:43;;;;;;;5.78;3.70;;;18.40;9.00;;;;;;5054284;28;20193;-33
2022/03/22 09:40:11;;;;;;;6.95;4.60;;;18.50;9.00;;;;;;5054192;28;20529;-32
2022/03/22 09:42:45;;;;;;;6.85;5.00;;;18.40;9.40;;;;;;5054128;28;20227;-32
2022/03/22 09:45:17;;;;;;;10.05;5.22;;;18.50;9.90;;;;;;5054409;28;20543;-32
2022/03/22 09:47:44;;;;;;;6.53;4.78;;;18.70;9.30;;;;;;5052965;28;20196;-33
2022/03/22 09:50:12;;;;;;;5.70;4.47;;;18.80;9.70;;;;;;5044835;28;20699;-33
2022/03/22 09:52:39;;;;;;;7.07;4.18;;;18.90;8.90;;;;;;5053574;28;20226;-33
2022/03/22 09:55:07;;;;;;;7.85;5.82;;;19.00;9.00;;;;;;5044993;28;20743;-33
2022/03/22 09:57:33;;;;;;;7.03;4.10;;;19.10;9.40;;;;;;5053563;28;20286;-33
2022/03/22 09:59:59;;;;;;;5.93;4.47;;;19.20;9.60;;;;;;5053823;28;20211;-34
2022/03/22 10:02:33;;;;;;;7.73;5.40;;;19.20;8.80;;;;;;5053973;28;20483;-34
2022/03/22 10:04:58;;;;;;;6.43;4.97;;;19.30;9.10;;;;;;5053654;28;20391;-34
2022/03/22 10:07:27;;;;;;;7.77;4.23;;;19.40;9.50;;;;;;5053483;28;20197;-34
2022/03/22 10:09:58;;;;;;;6.38;4.10;;;19.50;9.80;;;;;;5053262;28;20776;-34
2022/03/22 10:12:35;;;;;;;11.40;5.03;;;19.60;8.80;;;;;;5053796;28;20584;-33
2022/03/22 10:15:15;;;;;;;6.53;4.60;;;19.70;9.10;;;;;;5053654;28;20170;-32
2022/03/22 10:17:43;;;;;;;6.70;4.80;;;19.90;9.00;;;;;;5053163;28;20202;-32
2022/03/22 10:20:20;;;;;;;5.43;3.92;;;20.10;9.00;;;;;;5052477;28;20657;-32
2022/03/22 10:22:53;;;;;;;7.75;4.97;;;20.10;9.00;;;;;;5053361;28;20203;-33
2022/03/22 10:25:19;;;;;;;7.05;4.45;;;20.20;8.60;;;;;;5053487;28;20279;-32
2022/03/22 10:27:44;;;;;;;6.77;4.50;;;20.40;8.50;;;;;;5053451;28;20750;-33
2022/03/22 10:30:11;;;;;;;12.40;5.20;;;20.30;7.80;;;;;;5052997;28;20571;-33
2022/03/22 10:32:43;;;;;;;6.35;4.55;;;20.40;7.80;;;;;;5053072;28;20248;-32
2022/03/22 10:35:30;;;;;;;5.95;4.90;;;20.40;8.50;;;;;;5053287;28;20181;-33
2022/03/22 10:37:57;;;;;;;8.90;5.10;;;20.50;8.80;;;;;;5052940;28;20224;-33
2022/03/22 10:40:23;;;;;;;7.00;4.90;;;20.60;8.90;;;;;;5052780;28;20553;-33
2022/03/22 10:42:58;;;;;;;7.97;4.60;;;20.70;8.00;;;;;;5053000;28;20269;-33
2022/03/22 10:45:27;;;;;;;7.38;4.38;;;20.90;7.50;;;;;;5052659;28;20681;-33
2022/03/22 10:47:54;;;;;;;7.32;4.47;;;21.00;8.10;;;;;;5053033;28;20205;-32
2022/03/22 10:50:20;;;;;;;5.68;4.10;;;21.00;7.80;;;;;;5052929;28;20169;-33
2022/03/22 10:52:57;;;;;;;5.33;3.90;;;21.10;7.30;;;;;;5065620;23;20319;-34
2022/03/22 10:55:27;;;;;;;3.97;2.72;;;21.20;7.00;;;;;;5052581;28;20200;-34
2022/03/22 10:57:56;;;;;;;7.32;4.40;;;21.10;7.20;;;;;;5052715;28;20185;-34
2022/03/22 11:00:23;;;;;;;5.82;3.55;;;21.00;7.60;;;;;;5052277;28;20208;-34
2022/03/22 11:02:51;;;;;;;7.30;4.15;;;21.30;7.60;;;;;;5052732;28;20209;-34
2022/03/22 11:05:19;;;;;;;7.70;5.55;;;21.50;6.70;;;;;;5052497;28;20176;-34
2022/03/22 11:07:50;;;;;;;5.10;4.35;;;21.40;6.80;;;;;;5052590;28;20173;-34
2022/03/22 11:10:25;;;;;;;4.90;3.95;;;21.50;7.40;;;;;;5052391;28;20173;-34
2022/03/22 11:12:52;;;;;;;4.55;3.83;;;21.50;7.10;;;;;;5052279;28;20181;-34
2022/03/22 11:15:18;;;;;;;6.00;4.80;;;21.50;7.00;;;;;;5052630;28;20173;-34
2022/03/22 11:17:48;;;;;;;10.18;4.78;;;21.40;6.70;;;;;;5052684;28;20177;-34
2022/03/22 11:20:15;;;;;;;4.28;3.80;;;21.50;6.70;;;;;;5052025;28;20157;-34
2022/03/22 11:22:55;;;;;;;5.13;4.15;;;21.50;6.20;;;;;;5052178;28;20201;-34
2022/03/22 11:25:31;;;;;;;6.30;5.22;;;21.50;5.80;;;;;;5052179;28;20189;-34
2022/03/22 11:28:07;;;;;;;7.35;3.88;;;21.60;6.60;;;;;;5052247;28;20165;-34
2022/03/22 11:30:34;;;;;;;4.97;3.80;;;21.60;6.70;;;;;;5052131;28;20310;-34
2022/03/22 11:35:50;;;;;;;15.25;5.55;;;22.00;7.20;;;;;;5052325;28;20189;-36
2022/03/22 11:38:36;;;;;;;5.07;3.90;;;22.20;5.70;;;;;;5052080;28;20204;-36
2022/03/22 11:43:48;;;;;;;6.47;4.67;;;21.70;6.40;;;;;;5052128;28;20511;-36
2022/03/22 11:46:14;;;;;;;6.00;4.10;;;22.00;6.50;;;;;;5051670;28;20861;-36
2022/03/22 11:48:40;;;;;;;7.90;3.70;;;22.30;8.10;;;;;;5051814;28;20415;-36
2022/03/22 11:51:10;;;;;;;8.60;4.50;;;22.70;7.30;;;;;;5043476;28;20416;-36
2022/03/22 11:53:43;;;;;;;5.53;4.07;;;22.90;7.00;;;;;;5051680;28;20448;-36
2022/03/22 11:56:13;;;;;;;4.72;4.25;;;23.00;6.80;;;;;;5051958;28;20464;-36
2022/03/22 11:58:49;;;;;;;5.57;4.80;;;23.10;6.30;;;;;;5051543;28;20226;-36
2022/03/22 12:01:16;;;;;;;6.10;5.40;;;23.20;8.10;;;;;;5043233;28;20428;-36
2022/03/22 12:03:51;;;;;;;7.33;4.73;;;23.30;7.00;;;;;;5051654;28;20427;-36
2022/03/22 12:06:17;;;;;;;6.83;5.30;;;23.50;7.40;;;;;;5051870;28;20450;-36
2022/03/22 12:08:43;;;;;;;6.37;4.00;;;23.70;6.80;;;;;;5050318;28;20404;-36
2022/03/22 12:11:15;;;;;;;9.40;4.53;;;23.60;6.00;;;;;;5051660;28;20415;-36
2022/03/22 12:13:50;;;;;;;8.90;5.57;;;23.50;6.20;;;;;;5051836;28;20431;-36
2022/03/22 12:16:16;;;;;;;7.10;4.47;;;23.50;6.80;;;;;;5051789;28;20431;-36
2022/03/22 12:18:42;;;;;;;5.70;4.33;;;23.60;8.00;;;;;;5043094;28;20435;-36
2022/03/22 12:21:19;;;;;;;6.37;4.97;;;23.80;7.10;;;;;;5051647;28;20465;-36
2022/03/22 12:23:46;;;;;;;6.60;3.90;;;24.10;8.50;;;;;;5051597;28;20224;-37
2022/03/22 12:26:12;;;;;;;4.90;4.50;;;24.50;7.20;;;;;;5051543;28;20505;-37
2022/03/22 12:28:51;;;;;;;6.23;4.90;;;25.20;6.50;;;;;;5051273;28;20818;-36
2022/03/22 12:31:21;;;;;;;8.20;5.43;;;24.30;5.40;;;;;;5043156;28;20174;-36
2022/03/22 12:33:51;;;;;;;6.73;5.00;;;24.00;6.10;;;;;;5051343;28;20931;-36
2022/03/22 12:36:19;;;;;;;7.30;4.50;;;23.90;7.10;;;;;;5051540;28;20403;-36
2022/03/22 12:38:45;;;;;;;6.63;4.97;;;24.00;6.90;;;;;;5051161;28;20899;-37
2022/03/22 12:41:11;;;;;;;10.83;6.90;;;24.10;6.80;;;;;;5051692;28;20408;-36
2022/03/22 12:43:37;;;;;;;10.10;5.40;;;24.20;6.80;;;;;;5052075;28;20752;-37
2022/03/22 12:46:02;;;;;;;6.63;5.73;;;24.30;8.00;;;;;;5055108;28;20294;-37
2022/03/22 12:48:30;;;;;;;6.80;5.13;;;24.50;6.50;;;;;;5055191;28;20249;-36
2022/03/22 12:50:56;;;;;;;8.07;6.37;;;24.60;8.30;;;;;;5055070;28;20170;-36
2022/03/22 12:53:22;;;;;;;5.57;4.43;;;24.80;7.90;;;;;;5054398;28;20977;-37
2022/03/22 12:55:48;;;;;;;5.10;4.17;;;24.90;6.40;;;;;;5053991;28;20668;-36
2022/03/22 12:58:14;;;;;;;7.90;4.80;;;25.00;7.70;;;;;;5054807;28;20412;-37
2022/03/22 13:00:41;;;;;;;9.80;5.00;;;25.20;6.40;;;;;;5054991;28;20410;-37
2022/03/22 13:03:08;;;;;;;8.23;5.33;;;25.20;6.10;;;;;;5054833;28;20195;-37
2022/03/22 13:05:48;;;;;;;6.73;4.37;;;25.20;7.60;;;;;;5054696;28;20443;-36
2022/03/22 13:11:28;;;;;;;6.70;4.97;;;25.40;6.60;;;;;;5031160;28;20415;-37
2022/03/22 13:16:39;;;;;;;6.80;4.70;;;25.30;6.80;;;;;;5054690;28;20476;-36
2022/03/22 13:19:06;;;;;;;5.50;4.87;;;25.30;7.20;;;;;;5054380;28;20876;-36
2022/03/22 13:21:37;;;;;;;6.37;3.80;;;25.50;6.70;;;;;;5045928;28;20561;-37
2022/03/22 13:24:17;;;;;;;4.20;3.13;;;25.60;6.20;;;;;;5034384;28;20421;-36
2022/03/22 13:26:57;;;;;;;5.57;4.63;;;25.60;7.00;;;;;;5034310;28;20456;-36
2022/03/22 13:29:32;;;;;;;8.80;5.27;;;25.80;6.30;;;;;;5034500;28;20746;-36